Time;durP1;ratioP1;P1;durP2;ratioP2;P2;SDS_P1;SDS_P2;PMS_P1;PMS_P2;Temp;Humidity;BMP_temperature;BMP_pressure;BME280_temperature;BME280_humidity;BME280_pressure;Samples;Min_cycle;Max_cycle;Signal;HPM_P1;HPM_P2
2022/03/06 00:00:06;;;;;;;59.63;24.85;;;;;;;;;;5069504;28;20025;-73
2022/03/06 00:02:33;;;;;;;57.30;25.55;;;;;;;;;;5069006;28;20028;-72
2022/03/06 00:04:59;;;;;;;61.38;26.40;;;;;;;;;;5067344;28;20287;-73
2022/03/06 00:07:25;;;;;;;55.83;25.90;;;;;;;;;;5066557;28;20036;-74
2022/03/06 00:09:51;;;;;;;56.83;24.77;;;;;;;;;;5068426;28;20135;-73
2022/03/06 00:12:17;;;;;;;58.10;25.73;;;;;;;;;;5066677;28;20044;-73
2022/03/06 00:14:43;;;;;;;54.10;24.38;;;;;;;;;;5067853;28;20512;-72
2022/03/06 00:17:09;;;;;;;55.90;25.70;;;;;;;;;;5065748;28;20029;-72
2022/03/06 00:19:35;;;;;;;52.15;23.85;;;;;;;;;;5060006;28;20025;-73
2022/03/06 00:22:02;;;;;;;53.03;23.42;;;;;;;;;;5066414;28;20021;-72
2022/03/06 00:24:28;;;;;;;53.67;24.38;;;;;;;;;;5065828;28;20500;-72
2022/03/06 00:26:54;;;;;;;51.45;23.80;;;;;;;;;;5063420;28;20036;-73
2022/03/06 00:29:20;;;;;;;51.63;22.70;;;;;;;;;;5069327;28;20043;-71
2022/03/06 00:31:46;;;;;;;57.53;25.35;;;;;;;;;;5063316;28;20075;-73
2022/03/06 00:34:12;;;;;;;53.92;24.60;;;;;;;;;;5068017;28;20069;-73
2022/03/06 00:36:38;;;;;;;55.70;23.90;;;;;;;;;;5068292;28;20029;-73
2022/03/06 00:39:05;;;;;;;54.13;24.02;;;;;;;;;;5066938;28;20028;-73
2022/03/06 00:41:31;;;;;;;58.70;24.15;;;;;;;;;;5068486;28;20063;-73
2022/03/06 00:43:57;;;;;;;56.03;25.27;;;;;;;;;;5066787;28;20028;-73
2022/03/06 00:46:23;;;;;;;56.95;23.38;;;;;;;;;;5051379;28;20419;-73
2022/03/06 00:48:49;;;;;;;60.38;24.17;;;;;;;;;;5062343;28;20025;-73
2022/03/06 00:51:16;;;;;;;46.83;22.83;;;;;;;;;;5063405;28;20119;-73
2022/03/06 00:53:43;;;;;;;52.88;23.55;;;;;;;;;;5068371;28;20025;-73
2022/03/06 00:56:09;;;;;;;53.45;24.08;;;;;;;;;;5066214;28;20420;-73
2022/03/06 00:58:37;;;;;;;57.42;22.48;;;;;;;;;;5065791;28;20020;-74
2022/03/06 01:01:04;;;;;;;51.97;22.77;;;;;;;;;;5065346;28;20062;-74
2022/03/06 01:03:30;;;;;;;52.55;22.52;;;;;;;;;;5049064;28;20039;-74
2022/03/06 01:05:56;;;;;;;49.20;22.80;;;;;;;;;;5065217;28;20104;-74
2022/03/06 01:08:23;;;;;;;47.80;21.85;;;;;;;;;;5050750;28;20149;-74
2022/03/06 01:10:50;;;;;;;46.60;21.63;;;;;;;;;;5066930;28;20032;-73
2022/03/06 01:13:16;;;;;;;44.17;22.38;;;;;;;;;;5065652;28;20036;-74
2022/03/06 01:15:43;;;;;;;45.35;21.33;;;;;;;;;;5066360;28;20498;-73
2022/03/06 01:18:09;;;;;;;48.42;22.35;;;;;;;;;;5067844;28;20491;-73
2022/03/06 01:20:35;;;;;;;47.28;21.92;;;;;;;;;;5064594;28;20108;-73
2022/03/06 01:23:01;;;;;;;48.15;22.60;;;;;;;;;;5067998;28;20020;-73
2022/03/06 01:25:28;;;;;;;43.95;20.80;;;;;;;;;;5060972;28;20024;-73
2022/03/06 01:27:54;;;;;;;46.72;20.73;;;;;;;;;;5068686;28;20032;-73
2022/03/06 01:30:21;;;;;;;41.40;20.30;;;;;;;;;;5069616;28;20078;-73
2022/03/06 01:32:47;;;;;;;41.63;20.67;;;;;;;;;;5071805;28;20025;-72
2022/03/06 01:35:14;;;;;;;38.10;18.80;;;;;;;;;;5071012;28;20028;-74
2022/03/06 01:37:40;;;;;;;42.45;20.50;;;;;;;;;;5051583;28;20029;-74
2022/03/06 01:40:07;;;;;;;38.80;19.50;;;;;;;;;;5068491;28;20016;-74
2022/03/06 01:42:33;;;;;;;37.63;19.25;;;;;;;;;;5071617;28;20032;-74
2022/03/06 01:44:59;;;;;;;35.65;18.60;;;;;;;;;;5067731;28;20032;-73
2022/03/06 01:47:35;;;;;;;33.00;17.92;;;;;;;;;;5071672;28;20051;-74
2022/03/06 01:50:02;;;;;;;41.47;18.65;;;;;;;;;;5067867;28;20028;-73
2022/03/06 01:52:28;;;;;;;33.00;18.30;;;;;;;;;;5072177;28;20035;-73
2022/03/06 01:54:54;;;;;;;34.55;17.75;;;;;;;;;;5069174;28;20029;-73
2022/03/06 01:57:20;;;;;;;31.75;16.63;;;;;;;;;;5071581;28;20032;-73
2022/03/06 01:59:46;;;;;;;34.15;18.88;;;;;;;;;;5070416;28;20489;-72
2022/03/06 02:02:12;;;;;;;34.10;17.77;;;;;;;;;;5068171;28;20091;-73
2022/03/06 02:04:38;;;;;;;36.63;17.88;;;;;;;;;;5050859;28;20048;-73
2022/03/06 02:07:04;;;;;;;36.08;17.90;;;;;;;;;;5068278;28;20029;-74
2022/03/06 02:09:30;;;;;;;30.02;17.13;;;;;;;;;;5071742;28;20186;-73
2022/03/06 02:14:41;;;;;;;31.10;15.93;;;;;;;;;;5069427;28;20056;-73
2022/03/06 02:17:07;;;;;;;32.45;16.42;;;;;;;;;;5052722;28;20518;-74
2022/03/06 02:19:50;;;;;;;33.65;17.60;;;;;;;;;;5071908;28;20084;-73
2022/03/06 02:22:16;;;;;;;32.53;16.38;;;;;;;;;;5070696;28;20040;-74
2022/03/06 02:24:42;;;;;;;32.47;17.10;;;;;;;;;;5068042;28;20044;-75
2022/03/06 02:27:08;;;;;;;31.48;17.02;;;;;;;;;;5051489;28;20070;-74
2022/03/06 02:29:34;;;;;;;30.92;17.23;;;;;;;;;;5071853;28;20041;-74
2022/03/06 02:32:01;;;;;;;36.03;18.80;;;;;;;;;;5069290;28;20143;-74
2022/03/06 02:34:28;;;;;;;34.42;18.95;;;;;;;;;;5068933;28;20025;-72
2022/03/06 02:36:54;;;;;;;34.80;18.33;;;;;;;;;;5063925;28;20027;-72
2022/03/06 02:39:26;;;;;;;34.63;18.13;;;;;;;;;;5070803;28;20020;-72
2022/03/06 02:41:53;;;;;;;33.80;18.50;;;;;;;;;;5068763;28;20092;-72
2022/03/06 02:44:19;;;;;;;40.63;18.95;;;;;;;;;;5068085;28;20047;-72
2022/03/06 02:46:45;;;;;;;38.95;19.30;;;;;;;;;;5067346;28;20038;-74
2022/03/06 02:49:13;;;;;;;37.00;19.23;;;;;;;;;;5069381;28;20108;-72
2022/03/06 02:51:40;;;;;;;39.15;20.48;;;;;;;;;;5067763;28;20098;-73
2022/03/06 02:54:06;;;;;;;38.30;20.85;;;;;;;;;;5067482;28;20037;-73
2022/03/06 02:56:32;;;;;;;40.40;20.40;;;;;;;;;;5049030;28;20147;-73
2022/03/06 02:58:58;;;;;;;43.80;21.15;;;;;;;;;;5070237;28;20553;-73
2022/03/06 03:01:25;;;;;;;41.72;20.20;;;;;;;;;;5067987;28;20037;-73
2022/03/06 03:03:51;;;;;;;38.38;21.25;;;;;;;;;;5069399;28;20132;-74
2022/03/06 03:06:17;;;;;;;45.13;22.38;;;;;;;;;;5066753;28;20085;-73
2022/03/06 03:08:46;;;;;;;45.88;23.30;;;;;;;;;;5070205;28;20103;-72
2022/03/06 03:11:12;;;;;;;48.22;23.95;;;;;;;;;;5067548;28;20299;-73
2022/03/06 03:13:38;;;;;;;52.10;23.15;;;;;;;;;;5049014;28;20021;-73
2022/03/06 03:16:05;;;;;;;43.05;22.55;;;;;;;;;;5067580;28;20107;-74
2022/03/06 03:18:31;;;;;;;44.22;24.08;;;;;;;;;;5068429;28;20435;-74
2022/03/06 03:20:57;;;;;;;48.67;24.55;;;;;;;;;;5050608;28;20040;-74
2022/03/06 03:23:23;;;;;;;48.10;24.85;;;;;;;;;;5064839;28;20119;-74
2022/03/06 03:25:49;;;;;;;46.15;23.98;;;;;;;;;;5068549;28;20033;-74
2022/03/06 03:28:15;;;;;;;48.30;23.85;;;;;;;;;;5070182;28;20100;-74
2022/03/06 03:30:41;;;;;;;49.65;25.25;;;;;;;;;;5067530;28;20079;-74
2022/03/06 03:33:07;;;;;;;52.25;26.02;;;;;;;;;;5065507;28;20024;-73
2022/03/06 03:35:33;;;;;;;53.38;25.67;;;;;;;;;;5069137;28;20081;-73
2022/03/06 03:37:59;;;;;;;51.15;26.30;;;;;;;;;;5069817;28;20053;-73
2022/03/06 03:40:25;;;;;;;55.17;27.50;;;;;;;;;;5067395;28;20059;-73
2022/03/06 03:42:51;;;;;;;48.97;27.23;;;;;;;;;;5065927;28;20028;-75
2022/03/06 03:45:18;;;;;;;53.13;27.15;;;;;;;;;;5063726;28;20132;-73
2022/03/06 03:47:44;;;;;;;52.15;26.65;;;;;;;;;;5067633;28;20105;-74
2022/03/06 03:50:10;;;;;;;55.55;28.70;;;;;;;;;;5062135;28;20032;-74
2022/03/06 03:52:36;;;;;;;55.67;29.00;;;;;;;;;;5067051;28;20074;-74
2022/03/06 03:55:02;;;;;;;54.03;27.75;;;;;;;;;;5065842;28;20086;-74
2022/03/06 03:57:28;;;;;;;53.78;29.30;;;;;;;;;;5051044;28;20020;-74
2022/03/06 03:59:54;;;;;;;59.38;30.70;;;;;;;;;;5068357;28;20040;-74
2022/03/06 04:02:20;;;;;;;62.60;29.95;;;;;;;;;;5066623;28;20024;-73
2022/03/06 04:04:46;;;;;;;58.47;30.40;;;;;;;;;;5067339;28;20032;-74
2022/03/06 04:07:12;;;;;;;64.47;31.25;;;;;;;;;;5069231;28;20446;-72
2022/03/06 04:09:38;;;;;;;59.92;29.73;;;;;;;;;;5067267;28;20039;-73
2022/03/06 04:12:04;;;;;;;63.33;31.25;;;;;;;;;;5066389;28;20049;-73
2022/03/06 04:14:31;;;;;;;61.95;30.60;;;;;;;;;;5068415;28;20177;-73
2022/03/06 04:16:57;;;;;;;56.85;29.98;;;;;;;;;;5067519;28;20029;-73
2022/03/06 04:19:23;;;;;;;61.15;31.98;;;;;;;;;;5066573;28;20017;-74
2022/03/06 04:21:49;;;;;;;55.60;30.20;;;;;;;;;;5063740;28;20401;-73
2022/03/06 04:24:15;;;;;;;58.10;30.35;;;;;;;;;;5068574;28;20032;-74
2022/03/06 04:26:41;;;;;;;58.50;30.60;;;;;;;;;;5065084;28;20032;-72
2022/03/06 04:29:07;;;;;;;61.47;30.55;;;;;;;;;;5068632;28;20103;-75
2022/03/06 04:31:33;;;;;;;58.67;32.28;;;;;;;;;;5067517;28;20032;-75
2022/03/06 04:33:59;;;;;;;62.28;31.20;;;;;;;;;;5067531;28;20029;-74
2022/03/06 04:36:25;;;;;;;60.92;31.65;;;;;;;;;;5068346;28;20067;-74
2022/03/06 04:38:52;;;;;;;72.40;33.38;;;;;;;;;;5069080;28;20555;-75
2022/03/06 04:41:18;;;;;;;60.15;30.65;;;;;;;;;;5066424;28;20020;-75
2022/03/06 04:43:44;;;;;;;63.50;32.15;;;;;;;;;;5068666;28;20056;-76
2022/03/06 04:46:10;;;;;;;57.15;31.20;;;;;;;;;;5063589;28;20032;-75
2022/03/06 04:48:37;;;;;;;64.13;33.10;;;;;;;;;;5051998;28;20553;-75
2022/03/06 04:51:04;;;;;;;65.65;33.85;;;;;;;;;;5064682;28;20078;-75
2022/03/06 04:53:30;;;;;;;67.43;32.10;;;;;;;;;;5067481;28;20548;-75
2022/03/06 04:55:56;;;;;;;66.90;31.98;;;;;;;;;;5067489;28;20131;-74
2022/03/06 04:58:22;;;;;;;60.22;31.48;;;;;;;;;;5047853;28;20129;-75
2022/03/06 05:00:48;;;;;;;62.53;33.83;;;;;;;;;;5063711;28;20028;-76
2022/03/06 05:03:14;;;;;;;61.10;32.35;;;;;;;;;;5066080;28;20534;-75
2022/03/06 05:05:40;;;;;;;62.65;31.65;;;;;;;;;;5063798;28;20066;-75
2022/03/06 05:08:06;;;;;;;69.22;33.78;;;;;;;;;;5050872;28;20090;-75
2022/03/06 05:10:32;;;;;;;60.45;32.05;;;;;;;;;;5050376;28;20036;-76
2022/03/06 05:12:58;;;;;;;58.03;31.35;;;;;;;;;;5065744;28;20029;-77
2022/03/06 05:15:24;;;;;;;59.85;30.65;;;;;;;;;;5065142;28;20474;-74
2022/03/06 05:17:50;;;;;;;58.78;29.05;;;;;;;;;;5065219;28;20024;-76
2022/03/06 05:20:16;;;;;;;53.95;30.30;;;;;;;;;;5064609;28;20033;-75
2022/03/06 05:22:43;;;;;;;55.13;28.17;;;;;;;;;;5064505;28;20030;-74
2022/03/06 05:25:09;;;;;;;56.22;30.10;;;;;;;;;;5064384;28;20043;-76
2022/03/06 05:27:36;;;;;;;55.47;30.02;;;;;;;;;;5068357;28;20041;-75
2022/03/06 05:30:02;;;;;;;52.50;27.85;;;;;;;;;;5064550;28;20496;-74
2022/03/06 05:32:28;;;;;;;50.58;28.52;;;;;;;;;;5065641;28;20033;-74
2022/03/06 05:34:54;;;;;;;51.95;29.30;;;;;;;;;;5044730;28;20024;-74
2022/03/06 05:37:20;;;;;;;56.95;29.45;;;;;;;;;;5065571;28;20048;-73
2022/03/06 05:39:46;;;;;;;52.63;28.67;;;;;;;;;;5065139;28;20035;-76
2022/03/06 05:42:14;;;;;;;54.70;29.70;;;;;;;;;;5065323;28;20036;-73
2022/03/06 05:44:41;;;;;;;56.47;29.60;;;;;;;;;;5066201;28;20494;-74
2022/03/06 05:47:07;;;;;;;55.75;28.85;;;;;;;;;;5064776;28;20020;-74
2022/03/06 05:49:34;;;;;;;56.17;29.95;;;;;;;;;;5066302;28;20016;-74
2022/03/06 05:52:00;;;;;;;53.28;27.38;;;;;;;;;;5066482;28;20097;-74
2022/03/06 05:54:26;;;;;;;52.58;28.83;;;;;;;;;;5066940;28;20051;-73
2022/03/06 05:56:52;;;;;;;53.20;26.88;;;;;;;;;;5066174;28;20474;-74
2022/03/06 05:59:18;;;;;;;54.22;28.33;;;;;;;;;;5063763;28;20104;-73
2022/03/06 06:01:44;;;;;;;49.13;26.08;;;;;;;;;;5048768;28;20029;-74
2022/03/06 06:04:12;;;;;;;50.65;27.27;;;;;;;;;;5046830;28;20037;-74
2022/03/06 06:06:38;;;;;;;50.00;28.33;;;;;;;;;;5063393;28;20033;-73
2022/03/06 06:09:05;;;;;;;55.95;28.63;;;;;;;;;;5068258;28;20067;-74
2022/03/06 06:11:31;;;;;;;48.72;28.40;;;;;;;;;;5062762;28;20047;-74
2022/03/06 06:13:57;;;;;;;51.10;28.13;;;;;;;;;;5069999;28;20107;-74
2022/03/06 06:16:23;;;;;;;51.67;28.58;;;;;;;;;;5065889;28;20427;-75
2022/03/06 06:18:50;;;;;;;54.40;28.58;;;;;;;;;;5069103;28;20024;-73
2022/03/06 06:21:18;;;;;;;53.20;27.27;;;;;;;;;;5069337;28;20475;-74
2022/03/06 06:23:45;;;;;;;51.78;27.45;;;;;;;;;;5068606;28;20028;-75
2022/03/06 06:26:11;;;;;;;57.03;29.13;;;;;;;;;;5053678;28;20508;-75
2022/03/06 06:28:38;;;;;;;52.33;26.90;;;;;;;;;;5070663;28;20064;-75
2022/03/06 06:31:05;;;;;;;51.20;28.15;;;;;;;;;;5068326;28;20048;-74
2022/03/06 06:33:32;;;;;;;51.63;28.35;;;;;;;;;;5070230;28;20035;-74
2022/03/06 06:35:58;;;;;;;53.30;27.80;;;;;;;;;;5069795;28;20051;-74
2022/03/06 06:38:24;;;;;;;50.00;28.63;;;;;;;;;;5070214;28;20232;-74
2022/03/06 06:40:51;;;;;;;50.78;28.42;;;;;;;;;;5069081;28;20039;-73
2022/03/06 06:43:17;;;;;;;48.95;27.42;;;;;;;;;;5068679;28;20461;-76
2022/03/06 06:45:43;;;;;;;47.38;27.25;;;;;;;;;;5067954;28;20106;-74
2022/03/06 06:48:09;;;;;;;47.40;27.60;;;;;;;;;;5069382;28;20064;-75
2022/03/06 06:50:35;;;;;;;56.58;27.98;;;;;;;;;;5069937;28;20474;-74
2022/03/06 06:53:01;;;;;;;44.80;25.75;;;;;;;;;;5070659;28;20016;-73
2022/03/06 06:55:28;;;;;;;48.03;25.75;;;;;;;;;;5070007;28;20478;-74
2022/03/06 06:57:53;;;;;;;43.28;24.67;;;;;;;;;;5050820;28;20028;-73
2022/03/06 07:00:20;;;;;;;49.20;24.85;;;;;;;;;;5071019;28;20032;-72
2022/03/06 07:02:46;;;;;;;37.40;22.83;;;;;;;;;;5069230;28;20040;-75
2022/03/06 07:05:12;;;;;;;38.88;23.55;;;;;;;;;;5069062;28;20029;-74
2022/03/06 07:07:39;;;;;;;36.83;21.30;;;;;;;;;;5054361;28;20051;-73
2022/03/06 07:10:05;;;;;;;34.92;21.73;;;;;;;;;;5068049;28;20025;-73
2022/03/06 07:12:31;;;;;;;33.83;20.92;;;;;;;;;;5068173;28;20826;-73
2022/03/06 07:14:57;;;;;;;37.95;20.48;;;;;;;;;;5050475;28;20071;-74
2022/03/06 07:17:23;;;;;;;34.67;21.48;;;;;;;;;;5067254;28;20179;-74
2022/03/06 07:19:49;;;;;;;38.53;22.40;;;;;;;;;;5067896;28;20040;-74
2022/03/06 07:22:16;;;;;;;33.65;20.65;;;;;;;;;;5066633;28;20031;-74
2022/03/06 07:24:42;;;;;;;33.35;20.45;;;;;;;;;;5066162;28;20140;-73
2022/03/06 07:27:08;;;;;;;31.35;19.27;;;;;;;;;;5066030;28;20041;-74
2022/03/06 07:29:34;;;;;;;29.25;19.25;;;;;;;;;;5069265;28;20028;-73
2022/03/06 07:32:00;;;;;;;27.02;17.10;;;;;;;;;;5069103;28;20543;-73
2022/03/06 07:34:26;;;;;;;28.73;18.42;;;;;;;;;;5067666;28;20098;-74
2022/03/06 07:36:52;;;;;;;29.65;18.35;;;;;;;;;;5068342;28;20037;-74
2022/03/06 07:39:18;;;;;;;31.33;17.98;;;;;;;;;;5068446;28;20025;-74
2022/03/06 07:41:44;;;;;;;31.65;17.48;;;;;;;;;;5068193;28;20108;-72
2022/03/06 07:44:10;;;;;;;28.90;17.33;;;;;;;;;;5067929;28;20042;-73
2022/03/06 07:46:36;;;;;;;27.17;16.50;;;;;;;;;;5069152;28;20035;-71
2022/03/06 07:49:02;;;;;;;23.52;16.20;;;;;;;;;;5068920;28;20486;-74
2022/03/06 07:51:28;;;;;;;21.58;14.30;;;;;;;;;;5051022;28;20047;-73
2022/03/06 07:53:54;;;;;;;23.35;15.23;;;;;;;;;;5068375;28;20025;-71
2022/03/06 07:56:20;;;;;;;23.08;13.55;;;;;;;;;;5062508;28;20029;-70
2022/03/06 07:58:46;;;;;;;25.90;14.77;;;;;;;;;;5064664;28;20039;-73
2022/03/06 08:01:12;;;;;;;23.48;13.88;;;;;;;;;;5065341;28;20086;-72
2022/03/06 08:03:38;;;;;;;21.73;13.35;;;;;;;;;;5067177;28;20131;-72
2022/03/06 08:06:04;;;;;;;21.45;14.00;;;;;;;;;;5067182;28;20175;-71
2022/03/06 08:08:30;;;;;;;23.27;12.35;;;;;;;;;;5066849;28;20029;-71
2022/03/06 08:10:56;;;;;;;18.17;11.68;;;;;;;;;;5065469;28;20040;-72
2022/03/06 08:13:22;;;;;;;15.85;10.18;;;;;;;;;;5066305;28;20472;-72
2022/03/06 08:15:48;;;;;;;18.48;10.82;;;;;;;;;;5062044;28;20094;-72
2022/03/06 08:18:14;;;;;;;18.38;10.32;;;;;;;;;;5063082;28;20028;-72
2022/03/06 08:20:40;;;;;;;15.82;10.48;;;;;;;;;;5061854;28;20040;-74
2022/03/06 08:23:06;;;;;;;15.38;8.68;;;;;;;;;;5062968;28;20501;-72
2022/03/06 08:25:32;;;;;;;14.93;9.00;;;;;;;;;;5065156;28;20031;-72
2022/03/06 08:27:59;;;;;;;15.00;9.02;;;;;;;;;;5066041;28;20438;-73
2022/03/06 08:30:26;;;;;;;15.90;8.35;;;;;;;;;;5059864;28;20041;-72
2022/03/06 08:32:52;;;;;;;15.82;8.30;;;;;;;;;;5061715;28;20033;-73
2022/03/06 08:35:18;;;;;;;12.57;8.02;;;;;;;;;;5065009;28;20123;-73
2022/03/06 08:37:44;;;;;;;13.25;7.30;;;;;;;;;;5064325;28;20494;-73
2022/03/06 08:40:10;;;;;;;15.63;7.43;;;;;;;;;;5064236;28;20345;-73
2022/03/06 08:42:37;;;;;;;15.75;7.40;;;;;;;;;;5047757;28;20048;-73
2022/03/06 08:45:03;;;;;;;10.70;7.22;;;;;;;;;;5066670;28;20045;-74
2022/03/06 08:47:29;;;;;;;10.30;6.28;;;;;;;;;;5066066;28;20040;-72
2022/03/06 08:49:55;;;;;;;11.52;6.93;;;;;;;;;;5064726;28;20036;-73
2022/03/06 08:52:21;;;;;;;10.13;6.25;;;;;;;;;;5063411;28;20040;-73
2022/03/06 08:54:47;;;;;;;12.13;6.40;;;;;;;;;;5064329;28;20035;-73
2022/03/06 08:57:13;;;;;;;9.82;5.90;;;;;;;;;;5063756;28;20115;-74
2022/03/06 08:59:39;;;;;;;11.02;6.28;;;;;;;;;;5059829;28;20017;-74
2022/03/06 09:02:05;;;;;;;8.60;5.65;;;;;;;;;;5059315;28;20044;-74
2022/03/06 09:04:33;;;;;;;10.65;5.90;;;;;;;;;;5062169;28;20028;-73
2022/03/06 09:06:59;;;;;;;8.60;5.68;;;;;;;;;;5062189;28;20563;-72
2022/03/06 09:09:25;;;;;;;13.68;6.32;;;;;;;;;;5063446;28;20501;-73
2022/03/06 09:11:51;;;;;;;10.15;6.05;;;;;;;;;;5043706;28;20064;-73
2022/03/06 09:14:17;;;;;;;9.52;5.68;;;;;;;;;;5066257;28;20063;-71
2022/03/06 09:16:43;;;;;;;11.25;6.10;;;;;;;;;;5063133;28;20048;-72
2022/03/06 09:19:09;;;;;;;8.18;5.20;;;;;;;;;;5066429;28;20089;-73
2022/03/06 09:21:35;;;;;;;7.72;5.40;;;;;;;;;;5067539;28;20041;-71
2022/03/06 09:24:01;;;;;;;11.52;5.47;;;;;;;;;;5066181;28;20494;-73
2022/03/06 09:26:27;;;;;;;8.88;4.90;;;;;;;;;;5063305;28;20033;-73
2022/03/06 09:28:53;;;;;;;9.40;5.15;;;;;;;;;;5064761;28;20028;-72
2022/03/06 09:31:21;;;;;;;11.07;5.20;;;;;;;;;;5065969;28;20037;-72
2022/03/06 09:33:47;;;;;;;12.00;5.25;;;;;;;;;;5067222;28;20097;-73
2022/03/06 09:36:13;;;;;;;8.20;4.95;;;;;;;;;;5043422;28;20115;-73
2022/03/06 09:38:39;;;;;;;10.75;5.20;;;;;;;;;;5064915;28;20044;-73
2022/03/06 09:41:06;;;;;;;7.53;4.88;;;;;;;;;;5062771;28;20032;-73
2022/03/06 09:43:33;;;;;;;9.07;4.80;;;;;;;;;;5065296;28;20584;-72
2022/03/06 09:46:04;;;;;;;9.07;4.85;;;;;;;;;;5061954;28;20039;-72
2022/03/06 09:48:30;;;;;;;6.93;5.03;;;;;;;;;;5068239;28;20073;-72
2022/03/06 09:50:56;;;;;;;8.45;5.00;;;;;;;;;;5051060;28;20502;-72
2022/03/06 09:53:22;;;;;;;8.40;4.75;;;;;;;;;;5071265;28;20106;-72
2022/03/06 09:55:49;;;;;;;13.27;5.28;;;;;;;;;;5065841;28;20024;-73
2022/03/06 09:58:15;;;;;;;7.28;4.93;;;;;;;;;;5067836;28;20037;-73
2022/03/06 10:00:41;;;;;;;7.68;5.15;;;;;;;;;;5065245;28;20043;-73
2022/03/06 10:03:07;;;;;;;8.77;4.65;;;;;;;;;;5067697;28;20452;-73
2022/03/06 10:05:38;;;;;;;9.75;5.30;;;;;;;;;;5049045;28;20060;-73
2022/03/06 10:08:23;;;;;;;8.02;5.05;;;;;;;;;;5071178;28;20020;-73
2022/03/06 10:10:53;;;;;;;9.10;5.50;;;;;;;;;;5062654;28;20106;-73
2022/03/06 10:13:22;;;;;;;8.75;4.90;;;;;;;;;;5058821;28;20033;-73
2022/03/06 10:16:05;;;;;;;8.23;5.00;;;;;;;;;;5067220;28;20079;-73
2022/03/06 10:18:31;;;;;;;10.55;5.28;;;;;;;;;;5066582;28;20834;-73
2022/03/06 10:21:01;;;;;;;10.65;5.60;;;;;;;;;;5069396;28;20021;-74
2022/03/06 10:23:27;;;;;;;7.95;5.30;;;;;;;;;;5068388;28;20086;-73
2022/03/06 10:26:01;;;;;;;9.20;5.30;;;;;;;;;;5065857;28;20024;-72
2022/03/06 10:28:27;;;;;;;20.02;10.57;;;;;;;;;;5070382;28;20094;-73
2022/03/06 10:30:53;;;;;;;40.13;18.33;;;;;;;;;;5066434;28;20040;-73
2022/03/06 10:33:20;;;;;;;9.27;5.82;;;;;;;;;;5066696;28;20113;-73
2022/03/06 10:35:48;;;;;;;12.70;6.30;;;;;;;;;;5063751;28;20021;-74
2022/03/06 10:38:27;;;;;;;8.70;5.22;;;;;;;;;;5067039;28;20017;-72
2022/03/06 10:40:54;;;;;;;18.25;9.45;;;;;;;;;;5064175;28;20127;-73
2022/03/06 10:43:22;;;;;;;13.43;6.90;;;;;;;;;;5070536;28;20032;-73
2022/03/06 10:45:48;;;;;;;13.75;7.22;;;;;;;;;;5064639;28;20029;-74
2022/03/06 10:48:15;;;;;;;10.63;5.53;;;;;;;;;;5068840;28;20033;-73
2022/03/06 10:50:41;;;;;;;13.30;7.15;;;;;;;;;;5067982;28;20028;-72
2022/03/06 10:53:21;;;;;;;11.38;6.32;;;;;;;;;;5070003;28;20033;-74
2022/03/06 10:55:47;;;;;;;11.93;6.15;;;;;;;;;;5066566;28;20027;-74
2022/03/06 10:58:13;;;;;;;11.50;6.53;;;;;;;;;;5067939;28;20572;-73
2022/03/06 11:00:41;;;;;;;8.45;5.75;;;;;;;;;;5067221;28;20028;-73
2022/03/06 11:03:07;;;;;;;11.05;6.07;;;;;;;;;;5064925;28;20036;-73
2022/03/06 11:05:34;;;;;;;12.95;6.68;;;;;;;;;;5066097;28;20032;-72
2022/03/06 11:08:03;;;;;;;13.32;6.70;;;;;;;;;;5066133;28;20040;-73
2022/03/06 11:10:29;;;;;;;13.20;6.97;;;;;;;;;;5061858;28;20048;-72
2022/03/06 11:12:56;;;;;;;12.05;7.35;;;;;;;;;;5067985;28;20579;-72
2022/03/06 11:15:22;;;;;;;12.85;7.15;;;;;;;;;;5068019;28;20044;-74
2022/03/06 11:17:48;;;;;;;11.32;7.07;;;;;;;;;;5069109;28;20044;-73
2022/03/06 11:20:14;;;;;;;22.48;9.68;;;;;;;;;;5067429;28;20227;-72
2022/03/06 11:22:48;;;;;;;19.90;9.65;;;;;;;;;;5069643;28;20086;-73
2022/03/06 11:25:17;;;;;;;15.35;8.50;;;;;;;;;;5068056;28;20025;-73
2022/03/06 11:27:47;;;;;;;14.60;8.90;;;;;;;;;;5069274;28;20028;-73
2022/03/06 11:30:18;;;;;;;16.77;7.43;;;;;;;;;;5066312;28;20090;-74
2022/03/06 11:32:46;;;;;;;12.65;7.55;;;;;;;;;;5066768;28;20037;-74
2022/03/06 11:35:18;;;;;;;15.00;8.77;;;;;;;;;;5063668;28;20523;-73
2022/03/06 11:37:51;;;;;;;12.30;8.25;;;;;;;;;;5069495;28;20028;-73
2022/03/06 11:40:37;;;;;;;16.10;8.23;;;;;;;;;;5067512;28;20502;-74
2022/03/06 11:43:04;;;;;;;12.15;8.10;;;;;;;;;;5068972;28;20032;-72
2022/03/06 11:45:45;;;;;;;12.27;7.38;;;;;;;;;;5064396;28;20028;-72
2022/03/06 11:48:21;;;;;;;11.18;7.43;;;;;;;;;;5067434;28;20033;-73
2022/03/06 11:51:07;;;;;;;16.90;7.80;;;;;;;;;;5063199;28;20039;-73
2022/03/06 11:54:02;;;;;;;13.00;8.40;;;;;;;;;;5064613;28;20086;-73
2022/03/06 11:56:34;;;;;;;13.15;7.75;;;;;;;;;;5061543;28;20056;-72
2022/03/06 11:59:12;;;;;;;12.48;7.57;;;;;;;;;;5064498;28;20048;-73
2022/03/06 12:01:43;;;;;;;13.05;8.40;;;;;;;;;;5065144;28;20119;-74
2022/03/06 12:04:19;;;;;;;13.43;7.28;;;;;;;;;;5065817;28;20024;-76
2022/03/06 12:06:46;;;;;;;12.20;7.65;;;;;;;;;;5048192;28;20024;-74
2022/03/06 12:09:15;;;;;;;11.00;7.30;;;;;;;;;;5063265;28;20655;-73
2022/03/06 12:11:41;;;;;;;13.35;8.00;;;;;;;;;;5044246;28;20266;-73
2022/03/06 12:14:19;;;;;;;11.68;7.05;;;;;;;;;;5064612;28;20069;-73
2022/03/06 12:17:04;;;;;;;12.02;7.43;;;;;;;;;;5063629;28;20046;-73
2022/03/06 12:19:37;;;;;;;12.35;8.98;;;;;;;;;;5065561;28;20028;-73
2022/03/06 12:22:16;;;;;;;16.95;9.65;;;;;;;;;;5062803;28;20035;-74
2022/03/06 12:24:48;;;;;;;13.25;8.38;;;;;;;;;;5060898;28;20175;-74
2022/03/06 12:27:15;;;;;;;12.10;7.75;;;;;;;;;;5062400;28;20470;-73
2022/03/06 12:29:53;;;;;;;13.18;7.85;;;;;;;;;;5061108;28;20111;-72
2022/03/06 12:32:25;;;;;;;14.05;9.50;;;;;;;;;;5060279;28;20040;-74
2022/03/06 12:34:57;;;;;;;15.90;8.48;;;;;;;;;;5065383;28;20031;-74
2022/03/06 12:37:23;;;;;;;11.98;8.10;;;;;;;;;;5067532;28;20059;-74
2022/03/06 12:39:50;;;;;;;11.85;8.30;;;;;;;;;;5068495;28;20035;-74
2022/03/06 12:42:23;;;;;;;12.63;8.93;;;;;;;;;;5050574;28;20108;-73
2022/03/06 12:44:52;;;;;;;10.02;7.57;;;;;;;;;;5053666;28;20306;-73
2022/03/06 12:47:18;;;;;;;14.02;8.48;;;;;;;;;;5067065;28;20035;-73
2022/03/06 12:49:52;;;;;;;12.05;7.97;;;;;;;;;;5066199;28;20478;-73
2022/03/06 12:52:19;;;;;;;10.20;7.32;;;;;;;;;;5063364;28;20131;-73
2022/03/06 12:54:49;;;;;;;10.63;7.72;;;;;;;;;;5064487;28;20032;-72
2022/03/06 12:57:15;;;;;;;13.23;7.60;;;;;;;;;;5066818;28;20508;-71
2022/03/06 12:59:43;;;;;;;14.40;7.60;;;;;;;;;;5049383;28;20078;-72
2022/03/06 13:02:09;;;;;;;10.27;7.30;;;;;;;;;;5064205;28;20515;-72
2022/03/06 13:04:36;;;;;;;12.32;7.63;;;;;;;;;;5065659;28;20494;-72
2022/03/06 13:07:02;;;;;;;14.73;9.57;;;;;;;;;;5064171;28;20107;-73
2022/03/06 13:09:30;;;;;;;10.40;6.38;;;;;;;;;;5065730;28;20046;-71
2022/03/06 13:11:57;;;;;;;10.45;7.50;;;;;;;;;;5066126;28;20094;-72
2022/03/06 13:14:34;;;;;;;13.27;6.78;;;;;;;;;;5064963;28;20028;-72
2022/03/06 13:17:01;;;;;;;10.05;6.47;;;;;;;;;;5066351;28;20055;-72
2022/03/06 13:19:27;;;;;;;13.35;6.65;;;;;;;;;;5060945;28;20021;-72
2022/03/06 13:21:53;;;;;;;8.30;4.90;;;;;;;;;;5065138;28;20036;-71
2022/03/06 13:24:19;;;;;;;6.22;4.05;;;;;;;;;;5065253;28;20054;-72
2022/03/06 13:26:46;;;;;;;7.15;3.90;;;;;;;;;;5061232;28;20028;-71
2022/03/06 13:29:19;;;;;;;6.57;3.28;;;;;;;;;;5054895;28;20036;-71
2022/03/06 13:31:46;;;;;;;9.13;4.57;;;;;;;;;;5060304;28;20047;-71
2022/03/06 13:34:13;;;;;;;8.02;4.78;;;;;;;;;;5063263;28;20040;-73
2022/03/06 13:36:40;;;;;;;7.65;3.50;;;;;;;;;;5057561;28;20108;-70
2022/03/06 13:39:10;;;;;;;6.80;3.53;;;;;;;;;;5061852;28;20020;-73
2022/03/06 13:41:37;;;;;;;11.27;6.35;;;;;;;;;;5061655;28;20034;-72
2022/03/06 13:44:07;;;;;;;9.68;5.03;;;;;;;;;;5057274;28;20123;-73
2022/03/06 13:46:39;;;;;;;15.82;3.42;;;;;;;;;;5063338;28;20060;-73
2022/03/06 13:49:16;;;;;;;8.32;3.30;;;;;;;;;;5062978;28;20043;-74
2022/03/06 13:51:43;;;;;;;5.38;2.85;;;;;;;;;;5064718;28;20028;-72
2022/03/06 13:54:09;;;;;;;5.57;3.70;;;;;;;;;;5067024;28;20031;-72
2022/03/06 13:56:44;;;;;;;6.00;3.05;;;;;;;;;;5057451;28;20033;-71
2022/03/06 13:59:12;;;;;;;6.75;3.15;;;;;;;;;;5061476;28;20025;-71
2022/03/06 14:01:38;;;;;;;6.75;3.50;;;;;;;;;;5064025;28;20021;-71
2022/03/06 14:04:06;;;;;;;17.27;3.90;;;;;;;;;;5062227;28;20450;-71
2022/03/06 14:06:33;;;;;;;4.47;3.08;;;;;;;;;;5065321;28;20051;-71
2022/03/06 14:08:59;;;;;;;8.15;2.92;;;;;;;;;;5065683;28;20553;-71
2022/03/06 14:11:26;;;;;;;5.45;3.35;;;;;;;;;;5065711;28;20082;-72
2022/03/06 14:13:53;;;;;;;7.68;3.72;;;;;;;;;;5063300;28;20017;-71
2022/03/06 14:16:19;;;;;;;11.85;3.63;;;;;;;;;;5064398;28;20044;-71
2022/03/06 14:18:47;;;;;;;14.70;7.30;;;;;;;;;;5065489;28;20471;-70
2022/03/06 14:21:17;;;;;;;7.55;3.45;;;;;;;;;;5067840;28;20478;-71
2022/03/06 14:23:44;;;;;;;10.20;3.08;;;;;;;;;;5064887;28;20394;-71
2022/03/06 14:26:10;;;;;;;7.22;3.90;;;;;;;;;;5057984;28;20031;-71